createdAt,value
2018-11-25T00:01:14.381Z,98.00
2018-11-25T00:03:45.976Z,98.00
2018-11-25T00:06:17.613Z,97.90
2018-11-25T00:08:49.193Z,97.80
2018-11-25T00:11:20.616Z,97.70
2018-11-25T00:13:52.304Z,97.70
2018-11-25T00:16:23.834Z,97.80
2018-11-25T00:18:55.411Z,97.90
2018-11-25T00:21:27.002Z,98.00
2018-11-25T00:23:58.530Z,98.20
2018-11-25T00:26:30.046Z,97.60
2018-11-25T00:29:01.628Z,97.50
2018-11-25T00:31:33.050Z,97.50
2018-11-25T00:34:04.727Z,97.60
2018-11-25T00:36:36.214Z,97.50
2018-11-25T00:39:10.193Z,97.50
2018-11-25T00:41:41.741Z,97.50
2018-11-25T00:44:13.281Z,97.70
2018-11-25T00:46:44.766Z,98.00
2018-11-25T00:49:16.187Z,98.20
2018-11-25T00:51:47.758Z,98.20
2018-11-25T00:54:19.188Z,98.20
2018-11-25T00:56:50.758Z,98.00
2018-11-25T00:59:22.386Z,97.90
2018-11-25T01:01:54.006Z,97.70
2018-11-25T01:04:25.673Z,97.80
2018-11-25T01:06:57.202Z,97.90
2018-11-25T01:09:28.889Z,97.80
2018-11-25T01:12:00.504Z,97.80
2018-11-25T01:14:32.046Z,97.80
2018-11-25T01:17:03.724Z,97.80
2018-11-25T01:19:35.424Z,97.80
2018-11-25T01:22:07.204Z,97.80
2018-11-25T01:24:38.678Z,97.80
2018-11-25T01:27:10.202Z,97.70
2018-11-25T01:29:42.001Z,97.80
2018-11-25T01:32:13.593Z,97.80
2018-11-25T01:34:45.105Z,97.70
2018-11-25T01:37:16.595Z,97.50
2018-11-25T01:39:48.110Z,97.50
2018-11-25T01:42:19.806Z,97.50
2018-11-25T01:44:51.326Z,97.60
2018-11-25T01:47:22.910Z,97.60
2018-11-25T01:49:54.533Z,97.50
2018-11-25T01:52:26.070Z,97.40
2018-11-25T01:54:57.527Z,97.30
2018-11-25T01:57:29.134Z,97.30
2018-11-25T02:00:00.633Z,97.20
2018-11-25T02:02:32.239Z,97.10
2018-11-25T02:05:03.773Z,97.20
2018-11-25T02:07:35.398Z,97.10
2018-11-25T02:10:12.625Z,97.10
2018-11-25T02:12:44.170Z,97.10
2018-11-25T02:15:16.870Z,97.20
2018-11-25T02:17:48.330Z,97.20
2018-11-25T02:20:22.734Z,97.20
2018-11-25T02:22:55.721Z,97.00
2018-11-25T02:25:27.442Z,96.60
2018-11-25T02:27:59.001Z,96.40
2018-11-25T02:30:30.604Z,97.00
2018-11-25T02:33:02.109Z,97.30
2018-11-25T02:35:33.538Z,96.90
2018-11-25T02:38:05.105Z,97.00
2018-11-25T02:40:36.634Z,97.20
2018-11-25T02:43:08.424Z,97.40
2018-11-25T02:45:40.019Z,97.70
2018-11-25T02:48:11.434Z,97.90
2018-11-25T02:50:42.886Z,98.00
2018-11-25T02:53:14.474Z,98.20
2018-11-25T02:55:45.988Z,98.30
2018-11-25T02:58:17.583Z,98.40
2018-11-25T03:00:49.299Z,98.50
2018-11-25T03:03:20.681Z,98.50
2018-11-25T03:05:52.293Z,98.40
2018-11-25T03:08:23.910Z,98.20
2018-11-25T03:10:55.604Z,98.30
2018-11-25T03:13:27.171Z,98.10
2018-11-25T03:15:58.632Z,98.00
2018-11-25T03:18:30.188Z,97.90
2018-11-25T03:21:01.625Z,97.90
2018-11-25T03:23:33.138Z,97.80
2018-11-25T03:26:04.790Z,97.70
2018-11-25T03:28:36.434Z,97.40
2018-11-25T03:31:08.437Z,97.20
2018-11-25T03:33:40.006Z,97.40
2018-11-25T03:36:11.441Z,97.60
2018-11-25T03:38:43.006Z,97.70
2018-11-25T03:41:14.548Z,98.00
2018-11-25T03:43:46.112Z,98.30
2018-11-25T03:46:17.717Z,98.40
2018-11-25T03:48:49.242Z,98.50
2018-11-25T03:51:20.826Z,98.80
2018-11-25T03:53:52.340Z,98.90
2018-11-25T03:56:23.869Z,99.00
2018-11-25T03:58:55.358Z,99.00
2018-11-25T04:01:27.042Z,99.00
2018-11-25T04:03:58.559Z,98.80
2018-11-25T04:06:29.983Z,98.30
2018-11-25T04:09:01.562Z,98.00
2018-11-25T04:11:32.991Z,97.90
2018-11-25T04:14:04.615Z,98.00
2018-11-25T04:16:36.264Z,98.30
2018-11-25T04:19:08.187Z,98.50
2018-11-25T04:21:39.833Z,98.50
2018-11-25T04:24:11.437Z,98.80
2018-11-25T04:26:43.166Z,99.00
2018-11-25T04:29:14.808Z,99.00
2018-11-25T04:31:46.277Z,99.10
2018-11-25T04:34:17.786Z,99.20
2018-11-25T04:36:49.367Z,99.00
2018-11-25T04:39:20.964Z,99.00
2018-11-25T04:41:52.471Z,99.30
2018-11-25T04:44:24.070Z,99.70
2018-11-25T04:46:55.702Z,99.90
2018-11-25T04:49:27.343Z,99.90
2018-11-25T04:51:58.997Z,99.90
2018-11-25T04:54:30.559Z,99.90
2018-11-25T04:57:02.018Z,99.90
2018-11-25T04:59:33.526Z,99.90
2018-11-25T05:02:05.023Z,99.90
2018-11-25T05:04:36.490Z,99.90
2018-11-25T05:07:08.530Z,99.90
2018-11-25T05:09:40.076Z,99.90
2018-11-25T05:12:11.542Z,99.90
2018-11-25T05:14:43.198Z,99.90
2018-11-25T05:17:14.736Z,99.90
2018-11-25T05:19:46.223Z,99.90
2018-11-25T05:22:17.844Z,99.90
2018-11-25T05:24:49.398Z,99.90
2018-11-25T05:27:21.001Z,99.90
2018-11-25T05:29:52.613Z,99.90
2018-11-25T05:32:24.035Z,99.90
2018-11-25T05:34:55.627Z,99.90
2018-11-25T05:37:27.219Z,99.90
2018-11-25T05:39:58.737Z,99.90
2018-11-25T05:42:30.320Z,99.90
2018-11-25T05:45:01.856Z,99.90
2018-11-25T05:47:33.586Z,99.90
2018-11-25T05:50:04.959Z,99.90
2018-11-25T05:52:36.654Z,99.90
2018-11-25T05:55:10.129Z,99.90
2018-11-25T05:57:41.848Z,99.90
2018-11-25T06:00:36.104Z,99.90
2018-11-25T06:03:07.706Z,99.90
2018-11-25T06:05:39.176Z,99.90
2018-11-25T06:08:10.805Z,99.90
2018-11-25T06:10:42.532Z,99.90
2018-11-25T06:13:13.958Z,99.90
2018-11-25T06:15:45.481Z,99.90
2018-11-25T06:18:17.221Z,99.90
2018-11-25T06:20:48.685Z,99.90
2018-11-25T06:23:20.275Z,99.90
2018-11-25T06:25:52.334Z,99.90
2018-11-25T06:28:23.969Z,99.90
2018-11-25T06:30:55.656Z,99.90
2018-11-25T06:33:27.284Z,99.90
2018-11-25T06:35:58.810Z,99.90
2018-11-25T06:38:30.363Z,99.90
2018-11-25T06:41:01.811Z,99.90
2018-11-25T06:43:33.385Z,99.90
2018-11-25T06:46:07.017Z,99.90
2018-11-25T06:48:38.539Z,99.90
2018-11-25T06:51:09.986Z,99.90
2018-11-25T06:53:41.530Z,99.90
2018-11-25T06:56:13.027Z,99.90
2018-11-25T06:58:44.741Z,99.90
2018-11-25T07:01:16.350Z,99.90
2018-11-25T07:03:47.870Z,99.90
2018-11-25T07:06:19.280Z,99.90
2018-11-25T07:08:50.855Z,99.90
2018-11-25T07:11:22.300Z,99.90
2018-11-25T07:13:53.869Z,99.90
2018-11-25T07:16:25.359Z,99.90
2018-11-25T07:18:56.966Z,99.90
2018-11-25T07:21:28.406Z,99.90
2018-11-25T07:23:59.977Z,99.90
2018-11-25T07:26:31.502Z,99.90
2018-11-25T07:29:03.101Z,99.90
2018-11-25T07:31:34.618Z,99.90
2018-11-25T07:34:06.419Z,99.90
2018-11-25T07:36:38.037Z,99.90
2018-11-25T07:39:09.836Z,99.90
2018-11-25T07:41:41.582Z,99.80
2018-11-25T07:44:13.141Z,99.90
2018-11-25T07:46:44.726Z,99.90
2018-11-25T07:49:16.254Z,99.90
2018-11-25T07:51:47.899Z,99.90
2018-11-25T07:54:19.358Z,99.90
2018-11-25T07:56:50.943Z,99.90
2018-11-25T07:59:22.566Z,99.90
2018-11-25T08:01:54.206Z,99.90
2018-11-25T08:04:25.669Z,99.90
2018-11-25T08:06:57.266Z,99.90
2018-11-25T08:09:28.790Z,99.60
2018-11-25T08:12:00.422Z,99.90
2018-11-25T08:14:31.894Z,99.90
2018-11-25T08:17:03.720Z,99.90
2018-11-25T08:19:35.375Z,99.70
2018-11-25T08:22:06.945Z,99.90
2018-11-25T08:24:38.361Z,99.90
2018-11-25T08:27:09.980Z,99.80
2018-11-25T08:29:41.766Z,99.40
2018-11-25T08:32:13.378Z,99.70
2018-11-25T08:34:44.799Z,99.50
2018-11-25T08:37:16.379Z,99.50
2018-11-25T08:39:47.800Z,99.50
2018-11-25T08:42:19.377Z,99.60
2018-11-25T08:44:50.803Z,99.50
2018-11-25T08:47:22.385Z,99.50
2018-11-25T08:49:53.879Z,99.30
2018-11-25T08:52:25.522Z,99.30
2018-11-25T08:54:57.131Z,99.40
2018-11-25T08:57:28.695Z,99.40
2018-11-25T09:00:00.188Z,99.70
2018-11-25T09:02:34.527Z,99.50
2018-11-25T09:05:09.718Z,99.70
2018-11-25T09:07:41.281Z,99.40
2018-11-25T09:10:22.683Z,98.90
2018-11-25T09:12:56.636Z,99.00
2018-11-25T09:15:29.730Z,98.90
2018-11-25T09:18:01.228Z,98.80
2018-11-25T09:20:32.760Z,99.30
2018-11-25T09:23:04.238Z,99.20
2018-11-25T09:25:35.923Z,99.30
2018-11-25T09:28:07.636Z,99.30
2018-11-25T09:30:39.282Z,99.20
2018-11-25T09:33:10.742Z,99.40
2018-11-25T09:35:42.175Z,99.50
2018-11-25T09:38:15.952Z,99.60
2018-11-25T09:40:49.650Z,99.50
2018-11-25T09:43:21.370Z,98.80
2018-11-25T09:45:53.495Z,98.60
2018-11-25T09:48:25.343Z,98.60
2018-11-25T09:50:56.951Z,98.80
2018-11-25T09:53:28.401Z,98.80
2018-11-25T09:56:00.069Z,98.50
2018-11-25T09:58:31.741Z,98.00
2018-11-25T10:01:03.442Z,98.40
2018-11-25T10:03:34.919Z,98.50
2018-11-25T10:06:06.998Z,98.30
2018-11-25T10:08:38.641Z,98.70
2018-11-25T10:11:10.350Z,98.50
2018-11-25T10:13:41.848Z,98.70
2018-11-25T10:16:13.560Z,98.80
2018-11-25T10:18:45.062Z,97.90
2018-11-25T10:21:16.657Z,97.80
2018-11-25T10:23:48.175Z,98.20
2018-11-25T10:26:19.590Z,98.00
2018-11-25T10:28:51.326Z,97.90
2018-11-25T10:31:22.825Z,97.70
2018-11-25T10:33:54.380Z,96.60
2018-11-25T10:36:26.066Z,97.60
2018-11-25T10:38:57.735Z,97.60
2018-11-25T10:41:29.253Z,97.40
2018-11-25T10:44:00.854Z,96.80
2018-11-25T10:46:32.373Z,96.20
2018-11-25T10:49:04.050Z,96.20
2018-11-25T10:51:35.561Z,96.30
2018-11-25T10:54:07.511Z,96.50
2018-11-25T10:56:39.043Z,96.10
2018-11-25T10:59:10.750Z,95.90
2018-11-25T11:01:54.070Z,95.60
2018-11-25T11:04:30.442Z,96.00
2018-11-25T11:07:06.931Z,96.10
2018-11-25T11:09:38.476Z,96.70
2018-11-25T11:12:10.091Z,96.50
2018-11-25T11:14:41.652Z,96.30
2018-11-25T11:17:13.262Z,96.40
2018-11-25T11:19:44.870Z,96.00
2018-11-25T11:22:16.425Z,96.10
2018-11-25T11:24:47.886Z,95.80
2018-11-25T11:27:19.310Z,95.80
2018-11-25T11:29:50.970Z,95.70
2018-11-25T11:32:22.637Z,95.40
2018-11-25T11:34:54.110Z,95.10
2018-11-25T11:37:25.794Z,95.10
2018-11-25T11:39:57.309Z,95.20
2018-11-25T11:42:29.015Z,95.30
2018-11-25T11:45:00.422Z,95.10
2018-11-25T11:47:31.850Z,95.20
2018-11-25T11:50:03.435Z,95.00
2018-11-25T11:52:34.882Z,95.30
2018-11-25T11:55:07.157Z,95.40
2018-11-25T11:57:38.739Z,95.70
2018-11-25T12:00:21.255Z,95.60
2018-11-25T12:02:52.863Z,95.10
2018-11-25T12:05:24.323Z,94.40
2018-11-25T12:07:55.960Z,94.80
2018-11-25T12:10:27.467Z,94.70
2018-11-25T12:12:59.073Z,94.20
2018-11-25T12:15:32.369Z,94.10
2018-11-25T12:18:03.920Z,93.80
2018-11-25T12:20:35.521Z,93.60
2018-11-25T12:23:08.095Z,93.70
2018-11-25T12:25:39.620Z,93.70
2018-11-25T12:28:11.261Z,93.70
2018-11-25T12:30:42.853Z,93.70
2018-11-25T12:33:14.425Z,93.90
2018-11-25T12:35:46.009Z,93.90
2018-11-25T12:38:17.581Z,93.50
2018-11-25T12:40:49.050Z,93.80
2018-11-25T12:43:20.470Z,94.00
2018-11-25T12:45:52.041Z,93.30
2018-11-25T12:48:23.638Z,93.20
2018-11-25T12:50:55.061Z,93.20
2018-11-25T12:53:26.470Z,93.70
2018-11-25T12:55:58.054Z,93.90
2018-11-25T12:58:29.543Z,93.30
2018-11-25T13:01:01.077Z,93.00
2018-11-25T13:03:32.542Z,93.00
2018-11-25T13:06:04.273Z,92.80
2018-11-25T13:08:35.697Z,92.70
2018-11-25T13:11:07.166Z,92.20
2018-11-25T13:13:38.591Z,92.30
2018-11-25T13:16:10.190Z,91.80
2018-11-25T13:18:41.595Z,91.50
2018-11-25T13:21:13.169Z,89.90
2018-11-25T13:23:44.511Z,90.70
2018-11-25T13:26:16.083Z,89.00
2018-11-25T13:28:47.614Z,88.10
2018-11-25T13:31:19.299Z,88.20
2018-11-25T13:33:57.350Z,88.30
2018-11-25T13:36:28.881Z,87.50
2018-11-25T13:39:00.505Z,87.60
2018-11-25T13:41:31.978Z,87.10
2018-11-25T13:44:03.563Z,88.10
2018-11-25T13:46:35.082Z,87.80
2018-11-25T13:49:06.671Z,88.80
2018-11-25T13:51:38.084Z,89.70
2018-11-25T13:54:09.534Z,90.20
2018-11-25T13:56:41.021Z,90.50
2018-11-25T13:59:12.542Z,90.60
2018-11-25T14:01:43.960Z,90.50
2018-11-25T14:04:15.531Z,90.60
2018-11-25T14:06:46.978Z,90.40
2018-11-25T14:09:18.659Z,91.00
2018-11-25T14:11:50.140Z,91.10
2018-11-25T14:14:21.646Z,90.90
2018-11-25T14:16:53.082Z,90.90
2018-11-25T14:19:24.650Z,90.80
2018-11-25T14:21:56.263Z,90.60
2018-11-25T14:24:27.871Z,90.80
2018-11-25T14:27:02.430Z,90.80
2018-11-25T14:29:34.046Z,91.00
2018-11-25T14:32:05.541Z,90.80
2018-11-25T14:34:37.086Z,91.10
2018-11-25T14:37:08.806Z,91.10
2018-11-25T14:39:40.269Z,91.50
2018-11-25T14:42:11.756Z,91.40
2018-11-25T14:44:43.271Z,91.50
2018-11-25T14:47:14.819Z,91.80
2018-11-25T14:49:46.286Z,91.70
2018-11-25T14:52:17.974Z,91.80
2018-11-25T14:54:51.390Z,92.10
2018-11-25T14:57:21.224Z,92.10
2018-11-25T14:59:55.300Z,92.50
2018-11-25T15:02:26.889Z,92.80
2018-11-25T15:04:58.549Z,93.20
2018-11-25T15:07:30.100Z,93.60
2018-11-25T15:10:01.669Z,93.80
2018-11-25T15:12:33.266Z,94.10
2018-11-25T15:15:05.187Z,94.00
2018-11-25T15:17:36.739Z,93.90
2018-11-25T15:20:11.188Z,94.10
2018-11-25T15:22:44.189Z,94.10
2018-11-25T15:25:22.279Z,94.20
2018-11-25T15:27:53.989Z,94.50
2018-11-25T15:30:25.576Z,94.40
2018-11-25T15:32:57.134Z,94.50
2018-11-25T15:35:28.600Z,94.50
2018-11-25T15:38:00.174Z,94.40
2018-11-25T15:40:33.656Z,94.40
2018-11-25T15:43:05.394Z,94.40
2018-11-25T15:45:36.756Z,94.40
2018-11-25T15:48:21.173Z,94.30
2018-11-25T15:50:52.817Z,94.50
2018-11-25T15:53:24.521Z,94.80
2018-11-25T15:55:59.468Z,94.10
2018-11-25T15:58:31.403Z,94.00
2018-11-25T16:01:02.871Z,94.00
2018-11-25T16:03:34.458Z,94.00
2018-11-25T16:06:17.626Z,94.10
2018-11-25T16:08:49.095Z,94.10
2018-11-25T16:11:20.861Z,94.10
2018-11-25T16:13:52.309Z,94.10
2018-11-25T16:16:23.769Z,94.10
2018-11-25T16:18:55.309Z,94.30
2018-11-25T16:21:27.482Z,94.40
2018-11-25T16:23:58.911Z,94.40
2018-11-25T16:26:33.650Z,94.50
2018-11-25T16:29:10.470Z,94.50
2018-11-25T16:31:42.034Z,94.50
2018-11-25T16:34:13.588Z,94.40
2018-11-25T16:36:45.191Z,94.20
2018-11-25T16:39:16.925Z,94.30
2018-11-25T16:41:48.577Z,94.20
2018-11-25T16:44:20.158Z,94.00
2018-11-25T16:46:51.766Z,93.70
2018-11-25T16:49:23.273Z,93.50
2018-11-25T16:51:54.710Z,93.60
2018-11-25T16:54:26.183Z,93.50
2018-11-25T16:56:57.539Z,93.20
2018-11-25T16:59:29.080Z,93.10
2018-11-25T17:02:00.544Z,93.20
2018-11-25T17:04:33.000Z,93.30
2018-11-25T17:07:04.498Z,93.50
2018-11-25T17:09:36.015Z,93.40
2018-11-25T17:12:07.665Z,93.50
2018-11-25T17:14:39.105Z,93.40
2018-11-25T17:17:10.537Z,93.30
2018-11-25T17:19:42.110Z,93.50
2018-11-25T17:22:16.631Z,93.70
2018-11-25T17:24:45.225Z,93.60
2018-11-25T17:27:16.643Z,93.50
2018-11-25T17:29:48.234Z,93.60
2018-11-25T17:32:19.722Z,93.60
2018-11-25T17:34:51.343Z,93.50
2018-11-25T17:37:22.802Z,93.80
2018-11-25T17:39:54.342Z,93.60
2018-11-25T17:42:25.697Z,93.70
2018-11-25T17:44:57.254Z,93.70
2018-11-25T17:47:28.671Z,93.60
2018-11-25T17:50:00.150Z,93.60
2018-11-25T17:52:31.575Z,93.60
2018-11-25T17:55:03.160Z,93.60
2018-11-25T17:57:34.592Z,93.60
2018-11-25T18:00:11.236Z,93.60
2018-11-25T18:02:42.829Z,93.20
2018-11-25T18:05:14.475Z,93.70
2018-11-25T18:07:45.947Z,93.70
2018-11-25T18:10:17.709Z,93.80
2018-11-25T18:12:49.073Z,93.70
2018-11-25T18:15:22.030Z,93.60
2018-11-25T18:18:07.374Z,93.50
2018-11-25T18:20:42.609Z,93.70
2018-11-25T18:23:14.109Z,93.60
2018-11-25T18:25:45.675Z,93.70
2018-11-25T18:28:17.227Z,93.50
2018-11-25T18:30:48.877Z,93.40
2018-11-25T18:33:20.350Z,93.50
2018-11-25T18:35:51.921Z,93.40
2018-11-25T18:38:23.533Z,93.30
2018-11-25T18:40:55.162Z,92.90
2018-11-25T18:43:26.755Z,93.10
2018-11-25T18:45:59.341Z,93.00
2018-11-25T18:48:30.247Z,92.80
2018-11-25T18:51:01.862Z,92.80
2018-11-25T18:53:33.362Z,93.10
2018-11-25T18:56:04.936Z,92.60
2018-11-25T18:58:36.293Z,92.50
2018-11-25T19:01:26.502Z,92.40
2018-11-25T19:03:58.001Z,92.50
2018-11-25T19:06:29.457Z,92.60
2018-11-25T19:09:00.921Z,92.70
2018-11-25T19:11:32.420Z,92.70
2018-11-25T19:14:03.958Z,92.60
2018-11-25T19:16:35.583Z,92.50
2018-11-25T19:19:07.444Z,92.40
2018-11-25T19:21:38.988Z,92.20
2018-11-25T19:24:10.422Z,91.80
2018-11-25T19:26:41.997Z,91.80
2018-11-25T19:29:13.538Z,91.80
2018-11-25T19:31:45.119Z,91.50
2018-11-25T19:34:16.597Z,91.70
2018-11-25T19:36:48.214Z,91.50
2018-11-25T19:39:19.745Z,91.60
2018-11-25T19:41:51.762Z,91.70
2018-11-25T19:44:23.438Z,91.90
2018-11-25T19:46:54.954Z,92.10
2018-11-25T19:49:26.543Z,92.20
2018-11-25T19:51:58.062Z,92.20
2018-11-25T19:54:29.601Z,92.20
2018-11-25T19:57:01.063Z,92.20
2018-11-25T19:59:32.654Z,92.10
2018-11-25T20:02:04.190Z,92.00
2018-11-25T20:04:35.877Z,91.80
2018-11-25T20:07:07.401Z,91.60
2018-11-25T20:09:39.083Z,91.70
2018-11-25T20:12:10.702Z,91.60
2018-11-25T20:14:42.265Z,91.70
2018-11-25T20:17:18.526Z,91.60
2018-11-25T20:19:50.158Z,91.50
2018-11-25T20:22:25.217Z,91.60
2018-11-25T20:24:56.748Z,91.70
2018-11-25T20:27:33.123Z,91.80
2018-11-25T20:30:05.450Z,91.80
2018-11-25T20:32:41.503Z,91.70
2018-11-25T20:35:13.125Z,91.70
2018-11-25T20:37:49.538Z,91.60
2018-11-25T20:40:21.198Z,91.60
2018-11-25T20:42:52.828Z,91.50
2018-11-25T20:45:29.467Z,91.40
2018-11-25T20:48:01.746Z,91.50
2018-11-25T20:50:33.098Z,91.60
2018-11-25T20:53:09.542Z,91.60
2018-11-25T20:55:41.011Z,91.70
2018-11-25T20:58:12.714Z,91.70
2018-11-25T21:00:44.808Z,91.70
2018-11-25T21:03:16.425Z,91.80
2018-11-25T21:05:47.923Z,92.10
2018-11-25T21:08:19.507Z,91.80
2018-11-25T21:10:50.906Z,91.80
2018-11-25T21:13:22.516Z,91.80
2018-11-25T21:15:54.026Z,91.60
2018-11-25T21:18:25.601Z,91.60
2018-11-25T21:20:57.046Z,91.70
2018-11-25T21:23:28.606Z,91.90
2018-11-25T21:26:00.044Z,91.70
2018-11-25T21:28:31.613Z,91.60
2018-11-25T21:31:03.143Z,91.50
2018-11-25T21:33:34.618Z,91.50
2018-11-25T21:36:06.382Z,91.70
2018-11-25T21:38:37.944Z,91.80
2018-11-25T21:41:09.534Z,91.80
2018-11-25T21:43:41.037Z,91.80
2018-11-25T21:46:12.641Z,91.90
2018-11-25T21:48:44.118Z,91.80
2018-11-25T21:51:15.699Z,91.90
2018-11-25T21:53:47.113Z,91.80
2018-11-25T21:56:18.750Z,91.80
2018-11-25T21:58:50.290Z,91.70
2018-11-25T22:01:21.904Z,91.70
2018-11-25T22:03:53.462Z,91.50
2018-11-25T22:06:25.027Z,91.10
2018-11-25T22:08:56.764Z,91.10
2018-11-25T22:11:28.334Z,91.10
2018-11-25T22:13:59.867Z,91.10
2018-11-25T22:16:31.443Z,91.20
2018-11-25T22:19:02.869Z,91.30
2018-11-25T22:21:34.446Z,90.80
2018-11-25T22:24:05.881Z,90.80
2018-11-25T22:26:37.445Z,90.70
2018-11-25T22:29:09.067Z,90.90
2018-11-25T22:31:40.669Z,90.70
2018-11-25T22:34:12.200Z,90.70
2018-11-25T22:36:43.666Z,90.70
2018-11-25T22:39:15.083Z,90.80
2018-11-25T22:41:46.680Z,90.60
2018-11-25T22:44:18.274Z,90.50
2018-11-25T22:46:49.790Z,90.50
2018-11-25T22:49:21.382Z,90.50
2018-11-25T22:51:52.893Z,90.70
2018-11-25T22:54:24.414Z,90.70
2018-11-25T22:56:55.901Z,90.70
2018-11-25T22:59:27.497Z,90.70
2018-11-25T23:01:59.007Z,90.60
2018-11-25T23:04:46.803Z,90.50
2018-11-25T23:07:18.486Z,90.50
2018-11-25T23:09:49.988Z,90.70
2018-11-25T23:12:21.618Z,90.60
2018-11-25T23:14:53.135Z,90.60
2018-11-25T23:17:24.711Z,90.70
2018-11-25T23:19:56.128Z,90.70
2018-11-25T23:22:27.710Z,90.80
2018-11-25T23:24:59.311Z,90.80
2018-11-25T23:27:30.835Z,90.90
2018-11-25T23:30:02.425Z,91.00
2018-11-25T23:32:33.934Z,91.10
2018-11-25T23:35:05.910Z,91.20
2018-11-25T23:37:37.361Z,91.20
2018-11-25T23:40:10.366Z,91.20
2018-11-25T23:42:41.914Z,91.30
2018-11-25T23:45:16.743Z,91.40
2018-11-25T23:47:48.571Z,91.30
2018-11-25T23:50:20.166Z,91.50
2018-11-25T23:52:51.992Z,91.60
2018-11-25T23:55:23.460Z,91.60
2018-11-25T23:57:55.046Z,91.60
